• Join FlightAware (Why Join?)
  • Login
  • US Flag 
04:42AM EST


 

Airport Tracker/Info


-or-


 

Live Flight TrackerFlight Track Log ✈ CPT8773 ✈ 27-Sep-2013 ✈ KCPR - KCOD

Flight Track Log - Related Links

Times and Time Zones

All times are in EDT time to prevent confusion due to time zone crossing. See the CPT8773 flight status page for this flight to view local times or setup timezone preferences in your user account.

Time Position Orientation Groundspeed Altitude Reporting Facility
EDT Latitude Longitude Course Direction KTS MPH feet Rate Location/Type
10:29AM 42.9467 -106.3825 313° West 114 131 7,000  Level Salt Lake Center
10:30AM 42.9775 -106.3925 347° North 120 138 7,500 540 Climbing Salt Lake Center
10:31AM 43.0131 -106.4167 334° Northwest 125 144 8,200 600 Climbing Salt Lake Center
10:32AM 43.0431 -106.4369 334° Northwest 126 145 8,800 480 Climbing Salt Lake Center
10:33AM 43.5517 -107.4591 313° West  Level Estimated
10:33AM 43.0739 -106.4547 337° Northwest 126 145 9,300  Level Salt Lake Center
10:34AM 43.5808 -107.5048 313° West  Level Estimated
10:34AM 43.1092 -106.4753 337° Northwest 124 143 9,900  Level Salt Lake Center
10:35AM 43.1403 -106.4906 340° North 124 143 10,300 420 Climbing Salt Lake Center
10:36AM 43.1789 -106.5092 341° North 126 145 10,800 420 Climbing Salt Lake Center
10:37AM 43.2169 -106.5258 342° North 129 148 11,300 480 Climbing Denver Center
10:38AM 43.2436 -106.5633 314° West 125 144 11,900 360 Climbing Denver Center
10:39AM 43.2600 -106.6019 300° West 121 139 12,100 60 Climbing Denver Center
10:40AM 43.2778 -106.6364 305° West 130 150 12,100 -60 Level Salt Lake Center
10:41AM 43.3072 -106.6853 310° West 144 166 12,000 -60 Descending Salt Lake Center
10:42AM 43.3297 -106.7308 304° West 150 173 12,000  Level Salt Lake Center
10:43AM 43.3589 -106.7844 307° West 155 178 12,000  Level Salt Lake Center
10:44AM 43.3853 -106.8297 309° West 158 182 12,000  Level Salt Lake Center
10:45AM 43.4136 -106.8842 306° West 157 181 12,000  Level Salt Lake Center
10:46AM 43.4356 -106.9278 305° West 158 182 12,000  Level Salt Lake Center
10:47AM 43.4667 -106.9869 306° West 159 183 12,000  Level Salt Lake Center
10:48AM 43.4900 -107.0403 301° West 161 185 12,000  Level Salt Lake Center
10:49AM 43.5133 -107.0922 302° West 161 185 12,000  Level Salt Lake Center
10:50AM 43.5397 -107.1431 306° West 162 186 12,000  Level Salt Lake Center
10:51AM 43.5667 -107.1922 307° West 162 186 12,000  Level Salt Lake Center
10:52AM 43.5928 -107.2411 306° West 159 183 12,000  Level Salt Lake Center
10:53AM 43.6183 -107.2900 306° West 158 182 12,000  Level Salt Lake Center
10:54AM 43.6497 -107.3483 307° West 158 182 12,000  Level Salt Lake Center
10:56AM 43.7003 -107.4469 305° West 158 182 12,100  Climbing Salt Lake Center
10:57AM 43.7267 -107.4958 307° West 158 182 12,100  Level Salt Lake Center
10:58AM 43.7517 -107.5461 305° West 158 182 12,100  Level Salt Lake Center
10:59AM 43.7778 -107.5981 305° West 161 185 12,100  Level Salt Lake Center
11:00AM 43.8139 -107.6556 311° West 164 189 12,100  Level Salt Lake Center
11:02AM 43.8472 -107.7000 316° Northwest 165 190 12,100  Level Salt Lake Center
11:03AM 43.8811 -107.7422 318° Northwest 165 190 12,100  Level Salt Lake Center
11:04AM 43.9153 -107.7858 317° Northwest 166 191 12,100 -60 Level Salt Lake Center
11:05AM 43.9494 -107.8303 317° Northwest 167 192 12,000  Descending Salt Lake Center
11:06AM 43.9822 -107.8753 315° West 167 192 12,100  Climbing Salt Lake Center
11:07AM 44.0142 -107.9192 315° West 165 190 12,100  Level Salt Lake Center
11:08AM 44.0544 -107.9722 317° Northwest 165 190 12,100  Level Salt Lake Center
11:09AM 44.0881 -108.0161 317° Northwest 165 190 12,100  Level Salt Lake Center
11:10AM 44.1203 -108.0608 315° West 165 190 12,100  Level Salt Lake Center
11:11AM 44.1533 -108.1050 316° Northwest 165 190 12,100 -60 Level Salt Lake Center
11:12AM 44.1858 -108.1492 316° Northwest 164 189 12,000 -240 Descending Salt Lake Center
11:13AM 44.2192 -108.1939 316° Northwest 165 190 11,700 -300 Descending Salt Lake Center
11:14AM 44.2636 -108.2492 318° Northwest 171 197 11,400 -300 Descending Salt Lake Center
11:15AM 44.2981 -108.2967 315° West 173 199 11,100 -300 Descending Salt Lake Center
11:16AM 44.3325 -108.3439 316° Northwest 174 200 10,900 -300 Descending Salt Lake Center
11:17AM 44.3667 -108.3892 317° Northwest 172 198 10,600 -300 Descending Salt Lake Center
11:18AM 44.3992 -108.4333 316° Northwest 169 194 10,400 -240 Descending Salt Lake Center
11:19AM 44.4325 -108.4772 317° Northwest 166 191 10,200 -360 Descending Salt Lake Center
11:20AM 44.4656 -108.5236 315° West 166 191 9,700 -540 Descending Salt Lake Center
11:21AM 44.5078 -108.5792 317° Northwest 170 196 9,200 -360 Descending Salt Lake Center
11:22AM 44.5411 -108.6258 315° West 171 197 9,000 -120 Descending Salt Lake Center
11:23AM 44.5714 -108.6669 316° Northwest 164 189 9,000 -60 Level Salt Lake Center
11:24AM 44.6025 -108.7056 319° Northwest 156 180 8,900 -480 Descending Salt Lake Center
11:25AM 44.6400 -108.7408 326° Northwest 156 180 8,100 -480 Descending Salt Lake Center
11:26AM 44.6528 -108.7903 290° West 155 178 8,000 -300 Descending Salt Lake Center
11:27AM 44.6225 -108.8511 235° Southwest 156 180 7,500 -300 Descending Salt Lake Center
11:28AM 44.5919 -108.8967 227° Southwest 158 182 7,400 -540 Descending Salt Lake Center
11:29AM 44.5667 -108.9408 231° Southwest 154 177 6,400 -780 Descending Salt Lake Center
11:30AM 44.5417 -108.9858 232° Southwest 148 170 5,800 -600 Descending Salt Lake Center
11:32AM 44.5167 -109.0167 241° Southwest  Level FlightAware Approximate